Terminal Aerodrome Forecast
Issued by NWS Tampa Bay Area, FL

Home | Current Version | Previous Version | Text Only | Print | Product List | Glossary On
Versions: 1 2 3 4 5 6 7 8 9 10 11 12 13 14
000
FTUS42 KTBW 211723
TAFSRQ
TAF
KSRQ 211723Z 2118/2218 19015G21KT P6SM FEW250
     FM220200 17011G16KT P6SM SCT200
     FM221300 18016G22KT P6SM BKN015 BKN100
     FM221500 18018G26KT P6SM VCTS SCT010CB BKN015=

USA.gov is the U.S. government's official web portal to all federal, state and local government web resources and services.